ADDS METAR Data INFO
IDs: Format: Raw Decoded Include TAF

Data at: 0028 UTC 23 Oct 2017

KBIH 222356Z AUTO 22004KT 10SM CLR 27/M09 A3031 RMK AO2 RAB39E44 SLP235 P0000 60000 T02671089 10278 20189 56010
KBIH 222256Z AUTO 00000KT 10SM CLR 27/M11 A3031 RMK AO2 SLP237 T02721111
KBIH 222156Z AUTO 30004KT 10SM CLR 27/M09 A3032 RMK AO2 SLP239 T02671094
KBIH 222056Z AUTO 20003KT 10SM CLR 24/M06 A3034 RMK AO2 SLP250 T02441056 58025
KBIH 221956Z AUTO 36004KT 10SM CLR 23/M05 A3039 RMK AO2 SLP266 T02331050
KBIH 221856Z AUTO 00000KT 10SM CLR 21/M06 A3042 RMK AO2 SLP279 T02111056
KBIH 221756Z AUTO 32004KT 10SM CLR 19/M04 A3043 RMK AO2 SLP282 T01891044 10189 20000 50002
KBIH 221656Z AUTO 35004KT 10SM CLR 15/M03 A3043 RMK AO2 SLP286 T01501028
KBIH 221556Z AUTO 02003KT 10SM CLR 10/M03 A3043 RMK AO2 SLP287 T01001033
KBIH 221456Z AUTO 33005KT 10SM CLR 04/M04 A3042 RMK AO2 SLP288 T00391044 53016
KBIH 221356Z AUTO 33007KT 10SM CLR 01/M06 A3040 RMK AO2 SLP283 T00061061
KBIH 221256Z AUTO 33006KT 10SM CLR 02/M06 A3039 RMK AO2 SLP274 T00171061
KBIH 221156Z AUTO 31007KT 10SM CLR 03/M06 A3037 RMK AO2 SLP262 T00331056 10078 20011 53008
KBIH 221056Z AUTO 33005KT 10SM CLR 03/M05 A3035 RMK AO2 SLP256 T00281050
KBIH 220956Z AUTO 31005KT 10SM CLR 02/M06 A3035 RMK AO2 SLP257 T00221056
KBIH 220856Z AUTO 33007KT 10SM CLR 03/M05 A3034 RMK AO2 SLP255 T00331050 51005
KBIH 220756Z AUTO 35004KT 10SM CLR 03/M06 A3034 RMK AO2 SLP254 T00331056 402221006
KBIH 220656Z AUTO 34005KT 10SM CLR 04/M06 A3034 RMK AO2 SLP255 T00441056
KBIH 220556Z AUTO 34005KT 10SM CLR 07/M05 A3033 RMK AO2 SLP252 T00671050 10217 20056 53024
KBIH 220456Z AUTO 31005KT 10SM CLR 08/M05 A3030 RMK AO2 SLP242 T00781050
KBIH 220356Z AUTO 00000KT 10SM CLR 11/M06 A3027 RMK AO2 SLP232 T01111061
KBIH 220256Z AUTO 19009KT 10SM CLR 14/M06 A3024 RMK AO2 SLP228 T01441061 53019
KBIH 220156Z AUTO 16010KT 10SM CLR 16/M06 A3022 RMK AO2 SLP217 T01611061
KBIH 220056Z AUTO 17009KT 10SM CLR 18/M06 A3019 RMK AO2 SLP209 T01831061
KBIH 212356Z AUTO VRB03KT 10SM CLR 22/M05 A3018 RMK AO2 SLP196 T02221050 10222 20139 55002
KBIH 212256Z AUTO 00000KT 10SM CLR 22/M06 A3018 RMK AO2 SLP196 T02171061
KBIH 212156Z AUTO 00000KT 10SM CLR 21/M07 A3018 RMK AO2 SLP193 T02061072
KBIH 212056Z AUTO 07004KT 10SM CLR 19/M08 A3019 RMK AO2 SLP198 T01941078 58010
KBIH 211956Z AUTO VRB03KT 10SM CLR 19/M08 A3020 RMK AO2 SLP200 T01891083
KBIH 211856Z AUTO 19003KT 10SM CLR 16/M08 A3022 RMK AO2 SLP210 T01561083
KBIH 211756Z AUTO 00000KT 10SM CLR 14/M07 A3023 RMK AO2 SLP214 T01391072 10144 21006 51012
KBIH 211656Z AUTO VRB03KT 10SM CLR 12/M06 A3021 RMK AO2 SLP211 T01221061
KBIH 211556Z AUTO 00000KT 10SM CLR 09/M06 A3021 RMK AO2 SLP210 T00891056
KBIH 211456Z AUTO 29006KT 10SM CLR 02/M07 A3019 RMK AO2 SLP209 T00221067 53021
KBIH 211356Z AUTO 31008KT 10SM CLR 01/M07 A3016 RMK AO2 SLP199 T00111072
KBIH 211256Z AUTO 31006KT 10SM CLR M01/M07 A3013 RMK AO2 SLP190 T10061072